Time;durP1;ratioP1;P1;durP2;ratioP2;P2;SDS_P1;SDS_P2;PMS_P1;PMS_P2;Temp;Humidity;BMP_temperature;BMP_pressure;BME280_temperature;BME280_humidity;BME280_pressure;Samples;Min_cycle;Max_cycle;Signal;HPM_P1;HPM_P2
2021/08/12 00:01:53;;;;;;;;;;;27.20;99.90;;;;;;1723625;82;20143;-90
2021/08/12 00:04:23;;;;;;;;;;;27.20;99.90;;;;;;1743431;81;20173;-90
2021/08/12 00:06:53;;;;;;;;;;;27.20;99.90;;;;;;1759508;81;20180;-89
2021/08/12 00:09:23;;;;;;;;;;;27.20;99.90;;;;;;1743997;80;20172;-88
2021/08/12 00:11:53;;;;;;;;;;;27.20;99.90;;;;;;1736146;80;20208;-90
2021/08/12 00:14:23;;;;;;;;;;;27.20;99.90;;;;;;1722228;81;20228;-88
2021/08/12 00:16:53;;;;;;;;;;;27.30;99.90;;;;;;1722198;81;20136;-88
2021/08/12 00:19:24;;;;;;;;;;;27.30;99.90;;;;;;1727361;81;20187;-90
2021/08/12 00:21:53;;;;;;;;;;;27.40;99.90;;;;;;1740201;81;20137;-88
2021/08/12 00:24:23;;;;;;;;;;;27.40;99.90;;;;;;1758304;80;20177;-89
2021/08/12 00:26:53;;;;;;;;;;;27.40;99.90;;;;;;1759268;80;20135;-89
2021/08/12 00:29:23;;;;;;;;;;;27.40;99.90;;;;;;1773165;79;20223;-89
2021/08/12 00:31:53;;;;;;;;;;;27.40;99.90;;;;;;1739741;81;20422;-91
2021/08/12 00:34:22;;;;;;;;;;;27.50;99.90;;;;;;1730692;81;20216;-88
2021/08/12 00:36:53;;;;;;;;;;;27.50;99.90;;;;;;1787062;78;20437;-89
2021/08/12 00:39:26;;;;;;;;;;;27.60;99.90;;;;;;1766140;80;20132;-89
2021/08/12 00:41:56;;;;;;;;;;;27.60;99.90;;;;;;1774575;79;20222;-89
2021/08/12 00:44:28;;;;;;;;;;;27.60;99.90;;;;;;1767838;79;20211;-91
2021/08/12 00:46:57;;;;;;;;;;;27.70;99.90;;;;;;1771062;79;20168;-90
2021/08/12 00:49:27;;;;;;;;;;;27.70;99.90;;;;;;1774842;79;20235;-92
2021/08/12 00:51:57;;;;;;;;;;;27.70;99.90;;;;;;1763623;81;20188;-90
2021/08/12 00:54:29;;;;;;;;;;;27.80;99.90;;;;;;1728270;81;20546;-89
2021/08/12 00:57:00;;;;;;;;;;;27.80;99.90;;;;;;1776683;79;20387;-90
2021/08/12 00:59:36;;;;;;;;;;;27.80;99.90;;;;;;1764029;80;20251;-90
2021/08/12 01:02:06;;;;;;;;;;;27.90;99.90;;;;;;1789294;79;20223;-89
2021/08/12 01:04:40;;;;;;;;;;;27.90;99.90;;;;;;1738908;81;20314;-89
2021/08/12 01:07:10;;;;;;;;;;;28.00;99.90;;;;;;1750954;79;20573;-90
2021/08/12 01:09:41;;;;;;;;;;;28.00;99.90;;;;;;1730946;81;20517;-89
2021/08/12 01:12:12;;;;;;;;;;;28.00;99.80;;;;;;1742935;81;20145;-89
2021/08/12 01:17:37;;;;;;;;;;;28.10;99.50;;;;;;1747589;80;20186;-89
2021/08/12 01:20:09;;;;;;;;;;;28.10;99.30;;;;;;1750036;78;20138;-91
2021/08/12 01:22:45;;;;;;;;;;;28.20;99.10;;;;;;1741948;77;20226;-92
2021/08/12 01:25:13;;;;;;;;;;;28.30;99.00;;;;;;1746914;81;20238;-90
2021/08/12 01:27:44;;;;;;;;;;;28.40;99.20;;;;;;1738040;78;20190;-89
2021/08/12 01:30:15;;;;;;;;;;;28.50;98.70;;;;;;1743959;81;20202;-90
2021/08/12 01:32:48;;;;;;;;;;;28.50;98.60;;;;;;1754961;81;20236;-89
2021/08/12 01:35:20;;;;;;;;;;;28.60;98.50;;;;;;1735352;81;20372;-89
2021/08/12 01:37:51;;;;;;;;;;;28.60;98.50;;;;;;1735714;81;20200;-89
2021/08/12 01:40:22;;;;;;;;;;;28.70;97.90;;;;;;1741891;81;20262;-89
2021/08/12 01:43:12;;;;;;;;;;;;;;;;;;;;;
2021/08/12 01:45:54;;;;;;;;;;;28.80;97.90;;;;;;1743714;81;20230;-89
2021/08/12 01:48:26;;;;;;;;;;;28.90;98.00;;;;;;1735228;81;20298;-89
2021/08/12 01:51:17;;;;;;;;;;;29.00;97.80;;;;;;1741142;81;20155;-91
2021/08/12 01:53:37;;;;;;;;;;;29.10;97.30;;;;;;1740288;81;20336;-89
2021/08/12 01:56:07;;;;;;;;;;;29.10;97.10;;;;;;1716796;82;20459;-90
2021/08/12 01:58:46;;;;;;;;;;;29.20;97.20;;;;;;1759422;80;20506;-90
2021/08/12 02:01:11;;;;;;;;;;;29.30;96.90;;;;;;1736433;81;20194;-90
2021/08/12 02:03:42;;;;;;;;;;;29.30;96.80;;;;;;1778281;79;20277;-89
2021/08/12 02:06:12;;;;;;;;;;;29.40;96.40;;;;;;1779383;79;20225;-90
2021/08/12 02:08:44;;;;;;;;;;;29.40;96.50;;;;;;1778633;79;20204;-89
2021/08/12 02:11:14;;;;;;;;;;;29.40;96.50;;;;;;1782313;79;20225;-89
2021/08/12 02:13:44;;;;;;;;;;;29.50;96.10;;;;;;1781647;79;20199;-90
2021/08/12 02:16:13;;;;;;;;;;;29.50;95.80;;;;;;1801712;79;20181;-90
2021/08/12 02:18:43;;;;;;;;;;;29.60;96.20;;;;;;1783145;79;20150;-89
2021/08/12 02:21:14;;;;;;;;;;;29.60;96.40;;;;;;1779394;79;20240;-90
2021/08/12 02:23:45;;;;;;;;;;;29.70;95.90;;;;;;1765960;80;20137;-91
2021/08/12 02:26:16;;;;;;;;;;;29.70;95.70;;;;;;1766579;80;20176;-90
2021/08/12 02:28:48;;;;;;;;;;;29.80;95.70;;;;;;1768860;79;20524;-89
2021/08/12 02:31:19;;;;;;;;;;;29.80;95.30;;;;;;1775986;79;20197;-90
2021/08/12 02:33:50;;;;;;;;;;;29.80;95.40;;;;;;1768310;79;20295;-90
2021/08/12 02:36:20;;;;;;;;;;;29.80;95.50;;;;;;1774841;79;20224;-89
2021/08/12 02:38:50;;;;;;;;;;;29.80;95.50;;;;;;1769872;80;20192;-88
2021/08/12 02:41:21;;;;;;;;;;;29.80;95.60;;;;;;1762653;80;20317;-89
2021/08/12 02:43:53;;;;;;;;;;;29.80;95.30;;;;;;1767858;80;20141;-91
2021/08/12 02:46:23;;;;;;;;;;;30.00;95.00;;;;;;1763207;80;20192;-89
2021/08/12 02:49:02;;;;;;;;;;;30.00;94.60;;;;;;1767013;80;20192;-90
2021/08/12 02:51:33;;;;;;;;;;;30.10;94.50;;;;;;1757058;80;20204;-88
2021/08/12 02:54:05;;;;;;;;;;;30.30;94.50;;;;;;1772221;80;20342;-90
2021/08/12 02:56:36;;;;;;;;;;;30.50;94.50;;;;;;1753426;80;20266;-88
2021/08/12 02:59:06;;;;;;;;;;;30.60;94.50;;;;;;1765024;80;20131;-89
2021/08/12 03:01:36;;;;;;;;;;;30.80;93.40;;;;;;1761746;80;20260;-90
2021/08/12 03:04:07;;;;;;;;;;;30.90;93.40;;;;;;1776983;80;20208;-89
2021/08/12 03:06:39;;;;;;;;;;;30.90;93.30;;;;;;1773555;80;20165;-92
2021/08/12 03:09:13;;;;;;;;;;;31.00;93.10;;;;;;1738435;81;20210;-90
2021/08/12 03:11:42;;;;;;;;;;;31.10;92.50;;;;;;1784529;79;20193;-91
2021/08/12 03:14:12;;;;;;;;;;;31.20;92.50;;;;;;1782272;79;20137;-89
2021/08/12 03:16:42;;;;;;;;;;;31.30;91.90;;;;;;1785073;79;20193;-90
2021/08/12 03:19:12;;;;;;;;;;;31.30;91.80;;;;;;1776375;80;20247;-89
2021/08/12 03:21:43;;;;;;;;;;;31.20;91.80;;;;;;1783316;79;20137;-91
2021/08/12 03:24:20;;;;;;;;;;;31.30;92.10;;;;;;1737263;81;20141;-90
2021/08/12 03:27:12;;;;;;;;;;;31.40;92.00;;;;;;1786141;79;20272;-90
2021/08/12 03:29:44;;;;;;;;;;;31.50;91.90;;;;;;1767325;80;20134;-89
2021/08/12 03:32:14;;;;;;;;;;;31.60;91.20;;;;;;1735519;81;20195;-89
2021/08/12 03:34:48;;;;;;;;;;;31.60;91.50;;;;;;1742739;80;20168;-91
2021/08/12 03:37:17;;;;;;;;;;;31.50;91.30;;;;;;1746897;81;20205;-90
2021/08/12 03:39:55;;;;;;;;;;;31.30;91.80;;;;;;1753825;81;20134;-90
2021/08/12 03:42:28;;;;;;;;;;;31.30;91.80;;;;;;1751403;81;20258;-90
2021/08/12 03:45:02;;;;;;;;;;;31.20;92.20;;;;;;1752528;81;20596;-89
2021/08/12 03:47:31;;;;;;;;;;;31.10;92.40;;;;;;1749771;81;20435;-89
2021/08/12 03:50:20;;;;;;;;;;;31.10;92.20;;;;;;1744961;81;20197;-90
2021/08/12 03:52:46;;;;;;;;;;;31.10;92.20;;;;;;1756038;80;20188;-89
2021/08/12 03:55:16;;;;;;;;;;;31.10;92.20;;;;;;1769939;80;20249;-91
2021/08/12 03:57:49;;;;;;;;;;;31.20;92.20;;;;;;1764030;80;20188;-91
2021/08/12 04:00:23;;;;;;;;;;;31.40;91.80;;;;;;1762758;80;20209;-92
2021/08/12 04:06:22;;;;;;;;;;;31.40;91.60;;;;;;1767736;80;20231;-91
2021/08/12 04:09:02;;;;;;;;;;;31.50;91.50;;;;;;1768116;80;20236;-91
2021/08/12 04:11:29;;;;;;;;;;;31.60;91.60;;;;;;1774058;80;20203;-91
2021/08/12 04:14:17;;;;;;;;;;;31.60;90.90;;;;;;1761821;80;20212;-91
2021/08/12 04:20:12;;;;;;;;;;;31.70;90.40;;;;;;1741008;81;20293;-91
2021/08/12 04:22:43;;;;;;;;;;;31.70;90.50;;;;;;1749355;81;20225;-92
2021/08/12 04:25:13;;;;;;;;;;;31.60;90.80;;;;;;1724750;82;20254;-92
2021/08/12 04:27:43;;;;;;;;;;;31.60;90.30;;;;;;1709328;82;20291;-91
2021/08/12 04:30:16;;;;;;;;;;;31.60;90.20;;;;;;1727184;82;20353;-90
2021/08/12 04:32:44;;;;;;;;;;;31.50;90.40;;;;;;1734241;81;20511;-90
2021/08/12 04:35:15;;;;;;;;;;;31.40;90.80;;;;;;1712876;82;20174;-90
2021/08/12 04:37:49;;;;;;;;;;;31.30;90.30;;;;;;1738850;81;20147;-90
2021/08/12 04:40:17;;;;;;;;;;;31.30;90.00;;;;;;1741054;81;20507;-91
2021/08/12 04:42:52;;;;;;;;;;;31.30;90.20;;;;;;1742902;81;20194;-91
2021/08/12 04:45:39;;;;;;;;;;;31.40;90.40;;;;;;1739091;82;20415;-90
2021/08/12 04:48:05;;;;;;;;;;;31.60;89.70;;;;;;1738322;78;20135;-90
2021/08/12 04:50:29;;;;;;;;;;;31.80;89.30;;;;;;1710012;82;20253;-91
2021/08/12 04:53:15;;;;;;;;;;;32.00;88.00;;;;;;1738821;82;20161;-92
2021/08/12 04:55:43;;;;;;;;;;;32.30;86.20;;;;;;1737105;83;20132;-91
2021/08/12 04:58:18;;;;;;;;;;;32.50;85.50;;;;;;1736737;81;20284;-91
2021/08/12 05:01:03;;;;;;;;;;;32.60;86.00;;;;;;1761314;81;20201;-91
2021/08/12 05:03:36;;;;;;;;;;;32.60;86.50;;;;;;1765722;80;20311;-91
2021/08/12 05:06:15;;;;;;;;;;;32.70;85.40;;;;;;1766017;81;20192;-92
2021/08/12 05:08:41;;;;;;;;;;;32.70;83.70;;;;;;1766249;81;20212;-90
2021/08/12 05:11:21;;;;;;;;;;;32.60;86.20;;;;;;1734037;83;20198;-90
2021/08/12 05:13:47;;;;;;;;;;;32.60;85.60;;;;;;1734438;81;20156;-90
2021/08/12 05:16:17;;;;;;;;;;;32.60;84.40;;;;;;1708963;82;20158;-90
2021/08/12 05:19:07;;;;;;;;;;;32.70;85.50;;;;;;1712244;82;20161;-90
2021/08/12 05:21:32;;;;;;;;;;;32.80;82.50;;;;;;1743917;80;20424;-89
2021/08/12 05:24:13;;;;;;;;;;;32.90;83.10;;;;;;1757967;80;20158;-90
2021/08/12 05:26:50;;;;;;;;;;;32.90;82.30;;;;;;1730654;82;20438;-90
2021/08/12 05:29:24;;;;;;;;;;;32.80;84.10;;;;;;1741420;82;20202;-91
2021/08/12 05:31:56;;;;;;;;;;;32.60;82.70;;;;;;1757618;80;20200;-90
2021/08/12 05:34:36;;;;;;;;;;;32.40;82.10;;;;;;1751074;81;20198;-91
2021/08/12 05:37:07;;;;;;;;;;;32.20;82.90;;;;;;1750984;81;20203;-90
2021/08/12 05:39:47;;;;;;;;;;;32.10;84.10;;;;;;1741593;82;20254;-91
2021/08/12 05:42:17;;;;;;;;;;;32.00;85.50;;;;;;1743251;80;20855;-90
2021/08/12 05:44:50;;;;;;;;;;;32.00;85.80;;;;;;1750547;80;20235;-91
2021/08/12 05:47:19;;;;;;;;;;;32.10;85.80;;;;;;1744838;82;20202;-91
2021/08/12 05:50:01;;;;;;;;;;;32.10;84.70;;;;;;1733446;81;20218;-92
2021/08/12 05:52:37;;;;;;;;;;;32.10;83.10;;;;;;1759605;80;20169;-91
2021/08/12 05:55:07;;;;;;;;;;;32.00;83.50;;;;;;1758531;81;20428;-92
2021/08/12 05:57:40;;;;;;;;;;;32.00;84.60;;;;;;1722188;80;20225;-90
2021/08/12 06:00:11;;;;;;;;;;;32.00;84.10;;;;;;1763507;80;20189;-89
2021/08/12 06:02:54;;;;;;;;;;;32.20;84.20;;;;;;1734412;81;20251;-91
2021/08/12 06:05:25;;;;;;;;;;;32.40;84.40;;;;;;1743041;81;20212;-91
2021/08/12 06:08:06;;;;;;;;;;;32.60;83.00;;;;;;1742609;82;20223;-91
2021/08/12 06:10:42;;;;;;;;;;;32.60;81.60;;;;;;1710782;83;20185;-93
2021/08/12 06:13:12;;;;;;;;;;;32.60;82.30;;;;;;1740285;81;20140;-91
2021/08/12 06:15:42;;;;;;;;;;;32.60;82.10;;;;;;1730554;81;20485;-91
2021/08/12 06:21:23;;;;;;;;;;;32.70;80.60;;;;;;1743044;81;20303;-91
2021/08/12 06:23:55;;;;;;;;;;;32.60;80.80;;;;;;1748779;81;20225;-89
2021/08/12 06:26:26;;;;;;;;;;;32.50;81.30;;;;;;1700500;81;20217;-90
2021/08/12 06:28:56;;;;;;;;;;;32.40;82.80;;;;;;1707576;83;20347;-88
2021/08/12 06:31:28;;;;;;;;;;;32.40;83.70;;;;;;1641934;86;20509;-88
2021/08/12 06:34:16;;;;;;;;;;;32.30;85.50;;;;;;1615896;86;20235;-89
2021/08/12 06:40:07;;;;;;;;;;;32.20;86.70;;;;;;1535334;92;20328;-88
2021/08/12 06:42:43;;;;;;;;;;;32.10;85.80;;;;;;1534258;92;20246;-88
2021/08/12 06:45:22;;;;;;;;;;;;;;;;;;;;;
2021/08/12 06:47:43;;;;;;;;;;;32.00;86.50;;;;;;1535258;92;20268;-89
2021/08/12 06:50:17;;;;;;;;;;;32.00;86.90;;;;;;1573741;90;20525;-88
2021/08/12 06:53:05;;;;;;;;;;;32.00;86.50;;;;;;1542594;92;20267;-90
2021/08/12 06:55:37;;;;;;;;;;;32.10;84.80;;;;;;1564188;89;20193;-89
2021/08/12 06:58:07;;;;;;;;;;;32.10;83.30;;;;;;1562945;92;20469;-88
2021/08/12 07:00:38;;;;;;;;;;;32.10;83.10;;;;;;1564293;90;20499;-90
2021/08/12 07:03:28;;;;;;;;;;;32.20;82.60;;;;;;1576075;88;20302;-89
2021/08/12 07:05:53;;;;;;;;;;;32.20;82.20;;;;;;1579941;89;20277;-90
2021/08/12 07:08:23;;;;;;;;;;;32.10;82.10;;;;;;1583662;89;20319;-89
2021/08/12 07:11:01;;;;;;;;;;;32.20;82.30;;;;;;1558239;91;20151;-89
2021/08/12 07:13:30;;;;;;;;;;;32.20;82.50;;;;;;1586273;90;20249;-89
2021/08/12 07:16:14;;;;;;;;;;;32.20;81.80;;;;;;1580586;89;20260;-88
2021/08/12 07:18:40;;;;;;;;;;;32.20;82.20;;;;;;1758293;80;20212;-88
2021/08/12 07:21:12;;;;;;;;;;;32.20;82.00;;;;;;1757187;81;20189;-89
2021/08/12 07:23:43;;;;;;;;;;;32.20;82.90;;;;;;1733241;81;20179;-89
2021/08/12 07:26:14;;;;;;;;;;;32.20;81.30;;;;;;1745392;81;20210;-89
2021/08/12 07:28:45;;;;;;;;;;;32.20;81.40;;;;;;1737083;80;20259;-89
2021/08/12 07:31:20;;;;;;;;;;;32.40;80.70;;;;;;1731796;82;20400;-89
2021/08/12 07:33:48;;;;;;;;;;;32.50;81.70;;;;;;1729879;80;20136;-89
2021/08/12 07:36:18;;;;;;;;;;;32.60;78.50;;;;;;1742693;81;20562;-89
2021/08/12 07:38:48;;;;;;;;;;;32.60;78.40;;;;;;1746160;81;20144;-89
2021/08/12 07:41:19;;;;;;;;;;;32.70;77.70;;;;;;1740859;81;20238;-87
2021/08/12 07:43:51;;;;;;;;;;;32.70;77.30;;;;;;1744138;82;20482;-88
2021/08/12 07:46:21;;;;;;;;;;;32.70;75.90;;;;;;1716206;82;20211;-88
2021/08/12 07:48:51;;;;;;;;;;;32.70;76.60;;;;;;1719609;82;20164;-88
2021/08/12 07:51:23;;;;;;;;;;;32.70;76.00;;;;;;1720624;82;20208;-88
2021/08/12 07:53:53;;;;;;;;;;;32.80;76.70;;;;;;1750507;81;20195;-87
2021/08/12 07:56:26;;;;;;;;;;;32.80;76.40;;;;;;1719553;83;20185;-88
2021/08/12 07:58:56;;;;;;;;;;;32.80;75.20;;;;;;1686824;84;20410;-91
2021/08/12 08:01:26;;;;;;;;;;;32.80;74.50;;;;;;1722791;83;20140;-87
2021/08/12 08:03:59;;;;;;;;;;;32.80;73.70;;;;;;1748946;82;20180;-86
2021/08/12 08:06:27;;;;;;;;;;;32.80;73.80;;;;;;1730319;82;20195;-88
2021/08/12 08:08:57;;;;;;;;;;;32.80;73.80;;;;;;1748485;81;20242;-87
2021/08/12 08:11:26;;;;;;;;;;;32.80;73.80;;;;;;1729714;82;20178;-89
2021/08/12 08:13:56;;;;;;;;;;;32.80;73.70;;;;;;1747759;81;20168;-87
2021/08/12 08:16:27;;;;;;;;;;;32.70;74.10;;;;;;1753636;81;20255;-87
2021/08/12 08:18:58;;;;;;;;;;;32.70;73.90;;;;;;1750805;81;20285;-87
2021/08/12 08:21:29;;;;;;;;;;;32.70;75.10;;;;;;1747010;81;20334;-87
2021/08/12 08:23:58;;;;;;;;;;;32.70;74.30;;;;;;1747738;81;20196;-88
2021/08/12 08:26:28;;;;;;;;;;;32.80;74.80;;;;;;1762422;81;20158;-86
2021/08/12 08:29:00;;;;;;;;;;;32.70;74.60;;;;;;1767563;78;20169;-90
2021/08/12 08:31:29;;;;;;;;;;;32.70;76.50;;;;;;1739161;78;20230;-89
2021/08/12 08:33:59;;;;;;;;;;;32.60;78.10;;;;;;1719414;80;20118;-89
2021/08/12 08:36:28;;;;;;;;;;;32.60;81.70;;;;;;1767430;81;20216;-90
2021/08/12 08:38:58;;;;;;;;;;;32.50;86.30;;;;;;1762064;81;20137;-89
2021/08/12 08:41:28;;;;;;;;;;;32.30;89.00;;;;;;1763811;81;20235;-86
2021/08/12 08:43:59;;;;;;;;;;;31.90;86.10;;;;;;1765729;80;20208;-90
2021/08/12 08:46:29;;;;;;;;;;;31.40;88.50;;;;;;1774401;80;20250;-93
2021/08/12 08:49:00;;;;;;;;;;;30.70;90.40;;;;;;1783346;80;20162;-91
2021/08/12 08:51:30;;;;;;;;;;;30.30;90.80;;;;;;1779795;80;20173;-90
2021/08/12 08:54:03;;;;;;;;;;;29.90;91.60;;;;;;1765980;81;20152;-90
2021/08/12 08:56:33;;;;;;;;;;;29.70;93.00;;;;;;1763851;81;20224;-91
2021/08/12 08:59:03;;;;;;;;;;;29.40;92.90;;;;;;1771061;80;20491;-91
2021/08/12 09:01:33;;;;;;;;;;;29.20;93.20;;;;;;1788368;80;20237;-91
2021/08/12 09:04:03;;;;;;;;;;;29.20;93.30;;;;;;1776522;80;20272;-91
2021/08/12 09:06:37;;;;;;;;;;;29.10;92.80;;;;;;1765737;80;20291;-91
2021/08/12 09:09:07;;;;;;;;;;;29.10;93.10;;;;;;1769053;80;20199;-91
2021/08/12 09:11:36;;;;;;;;;;;29.20;94.10;;;;;;1766020;80;20471;-90
2021/08/12 09:14:07;;;;;;;;;;;29.20;93.10;;;;;;1769843;80;20156;-90
2021/08/12 09:16:40;;;;;;;;;;;29.30;93.10;;;;;;1764188;80;20281;-89
2021/08/12 09:19:12;;;;;;;;;;;29.30;93.70;;;;;;1765247;81;20200;-90
2021/08/12 09:21:42;;;;;;;;;;;29.30;93.20;;;;;;1766438;80;20196;-90
2021/08/12 09:24:12;;;;;;;;;;;29.40;93.40;;;;;;1771133;80;20188;-91
2021/08/12 09:26:42;;;;;;;;;;;29.40;93.80;;;;;;1769633;80;20416;-90
2021/08/12 09:29:13;;;;;;;;;;;29.50;94.20;;;;;;1734599;82;20238;-88
2021/08/12 09:31:44;;;;;;;;;;;29.50;94.40;;;;;;1769835;80;20223;-88
2021/08/12 09:34:14;;;;;;;;;;;29.60;94.50;;;;;;1784623;80;20137;-85
2021/08/12 09:36:44;;;;;;;;;;;29.60;95.30;;;;;;1759456;80;20228;-86
2021/08/12 09:39:13;;;;;;;;;;;29.60;95.10;;;;;;1758945;80;20138;-86
2021/08/12 09:41:53;;;;;;;;;;;29.70;95.40;;;;;;1765034;81;20217;-86
2021/08/12 09:44:23;;;;;;;;;;;29.80;95.60;;;;;;1766602;80;20168;-86
2021/08/12 09:46:55;;;;;;;;;;;29.80;96.20;;;;;;1753717;80;20225;-86
2021/08/12 09:49:25;;;;;;;;;;;29.80;96.10;;;;;;1768165;80;20229;-90
2021/08/12 09:52:05;;;;;;;;;;;29.80;96.20;;;;;;1772493;80;20290;-90
2021/08/12 09:54:32;;;;;;;;;;;29.90;96.80;;;;;;1768200;80;20197;-88
2021/08/12 09:57:08;;;;;;;;;;;29.90;97.40;;;;;;1738223;81;20217;-90
2021/08/12 09:59:39;;;;;;;;;;;29.80;96.90;;;;;;1744980;81;20250;-90
2021/08/12 10:02:15;;;;;;;;;;;29.80;96.70;;;;;;1741220;82;20194;-89
2021/08/12 10:04:48;;;;;;;;;;;29.80;96.80;;;;;;1744846;81;20145;-91
2021/08/12 10:07:34;;;;;;;;;;;29.80;96.50;;;;;;1771468;80;20372;-90
2021/08/12 10:10:10;;;;;;;;;;;29.80;96.90;;;;;;1743375;79;20341;-90
2021/08/12 10:12:47;;;;;;;;;;;29.90;96.90;;;;;;1769926;80;20249;-89
2021/08/12 10:15:23;;;;;;;;;;;29.90;97.10;;;;;;1776895;80;20184;-88
2021/08/12 10:17:54;;;;;;;;;;;29.90;97.40;;;;;;1658685;85;20259;-87
2021/08/12 10:20:30;;;;;;;;;;;29.90;97.70;;;;;;1763027;80;20254;-90
2021/08/12 10:23:02;;;;;;;;;;;29.90;97.80;;;;;;1772522;80;20216;-89
2021/08/12 10:25:36;;;;;;;;;;;29.90;97.60;;;;;;1762056;80;20348;-90
2021/08/12 10:28:10;;;;;;;;;;;29.80;97.30;;;;;;1771730;79;20225;-88
2021/08/12 10:30:44;;;;;;;;;;;29.80;97.20;;;;;;1765866;80;20136;-88
2021/08/12 10:33:18;;;;;;;;;;;29.90;97.70;;;;;;1758915;80;20169;-88
2021/08/12 10:35:51;;;;;;;;;;;29.80;97.40;;;;;;1731019;81;20159;-89
2021/08/12 10:38:22;;;;;;;;;;;29.90;97.50;;;;;;1727276;81;20178;-89
2021/08/12 10:40:55;;;;;;;;;;;29.90;97.20;;;;;;1730658;81;20129;-89
2021/08/12 10:43:24;;;;;;;;;;;29.90;97.40;;;;;;1753275;81;20186;-87
2021/08/12 10:45:59;;;;;;;;;;;29.80;96.40;;;;;;1754707;81;20146;-88
2021/08/12 10:48:40;;;;;;;;;;;;;;;;;;;;;
2021/08/12 10:51:06;;;;;;;;;;;29.80;96.10;;;;;;1750278;80;20126;-88
2021/08/12 10:53:59;;;;;;;;;;;29.80;96.40;;;;;;1749409;81;20206;-89
2021/08/12 10:56:12;;;;;;;;;;;29.80;96.30;;;;;;1745653;80;20166;-87
2021/08/12 10:58:48;;;;;;;;;;;29.70;96.40;;;;;;1747506;81;20219;-87
2021/08/12 11:01:22;;;;;;;;;;;29.70;96.80;;;;;;1754690;81;20184;-87
2021/08/12 11:03:58;;;;;;;;;;;29.70;96.80;;;;;;1752170;81;20138;-87
2021/08/12 11:06:30;;;;;;;;;;;29.60;96.50;;;;;;1748853;81;20225;-88
2021/08/12 11:09:04;;;;;;;;;;;29.60;96.70;;;;;;1756416;81;20164;-89
2021/08/12 11:11:36;;;;;;;;;;;29.60;96.90;;;;;;1746387;81;20136;-89
2021/08/12 11:14:10;;;;;;;;;;;29.60;96.90;;;;;;1744159;81;20186;-89
2021/08/12 11:16:45;;;;;;;;;;;29.60;97.10;;;;;;1744871;79;20225;-90
2021/08/12 11:19:19;;;;;;;;;;;29.60;97.00;;;;;;1750383;81;20433;-88
2021/08/12 11:21:55;;;;;;;;;;;29.60;97.40;;;;;;1756165;81;20215;-87
2021/08/12 11:24:23;;;;;;;;;;;29.50;97.30;;;;;;1710972;82;20563;-89
2021/08/12 11:27:06;;;;;;;;;;;29.60;98.00;;;;;;1741506;81;20170;-89
2021/08/12 11:29:39;;;;;;;;;;;29.50;97.70;;;;;;1737731;82;20186;-88
2021/08/12 11:32:10;;;;;;;;;;;29.50;97.80;;;;;;1787408;79;20455;-89
2021/08/12 11:34:46;;;;;;;;;;;29.50;97.50;;;;;;1739162;82;20431;-88
2021/08/12 11:37:17;;;;;;;;;;;29.50;97.50;;;;;;1749580;81;20164;-89
2021/08/12 11:39:58;;;;;;;;;;;29.50;97.90;;;;;;1754194;81;20159;-89
2021/08/12 11:42:31;;;;;;;;;;;29.50;97.60;;;;;;1749824;79;20184;-90
2021/08/12 11:45:11;;;;;;;;;;;29.50;97.40;;;;;;1750866;81;20226;-89
2021/08/12 11:47:45;;;;;;;;;;;29.50;97.50;;;;;;1749327;81;20159;-89
2021/08/12 11:50:20;;;;;;;;;;;29.50;97.70;;;;;;1742749;81;20221;-89
2021/08/12 11:52:58;;;;;;;;;;;29.50;97.50;;;;;;1750500;81;20423;-91
2021/08/12 11:55:24;;;;;;;;;;;29.50;97.70;;;;;;1745146;81;20178;-90
2021/08/12 11:58:00;;;;;;;;;;;29.50;98.20;;;;;;1707110;82;20237;-89
2021/08/12 12:00:27;;;;;;;;;;;29.50;98.00;;;;;;1737558;82;20377;-89
2021/08/12 12:03:01;;;;;;;;;;;29.50;97.60;;;;;;1786828;79;20179;-88
2021/08/12 12:05:32;;;;;;;;;;;29.50;98.10;;;;;;1762010;80;20140;-89
2021/08/12 12:08:10;;;;;;;;;;;29.50;98.50;;;;;;1768780;80;20563;-88
2021/08/12 12:10:40;;;;;;;;;;;29.40;98.40;;;;;;1770334;80;20209;-89
2021/08/12 12:13:13;;;;;;;;;;;29.40;97.90;;;;;;1706156;82;20572;-89
2021/08/12 12:15:44;;;;;;;;;;;29.40;97.80;;;;;;1742450;81;20218;-89
2021/08/12 12:18:18;;;;;;;;;;;29.40;98.40;;;;;;1785015;79;20164;-89
2021/08/12 12:21:00;;;;;;;;;;;29.40;98.30;;;;;;1712258;82;20235;-87
2021/08/12 12:23:23;;;;;;;;;;;29.40;98.50;;;;;;1730854;82;20588;-89
2021/08/12 12:25:55;;;;;;;;;;;29.40;98.40;;;;;;1779563;79;20132;-89
2021/08/12 12:31:31;;;;;;;;;;;29.40;98.20;;;;;;1766775;80;20205;-89
2021/08/12 12:34:02;;;;;;;;;;;29.40;98.20;;;;;;1770807;80;20125;-89
2021/08/12 12:36:32;;;;;;;;;;;29.40;98.30;;;;;;1772291;80;20436;-90
2021/08/12 12:39:05;;;;;;;;;;;29.40;98.70;;;;;;1760439;80;20204;-89
2021/08/12 12:41:35;;;;;;;;;;;29.40;98.90;;;;;;1764960;80;20546;-89
2021/08/12 12:44:20;;;;;;;;;;;29.40;98.80;;;;;;1763495;80;20212;-89
2021/08/12 12:46:49;;;;;;;;;;;29.30;98.90;;;;;;1735295;81;20261;-89
2021/08/12 12:49:29;;;;;;;;;;;29.40;98.70;;;;;;1735118;81;20276;-89
2021/08/12 12:51:59;;;;;;;;;;;29.40;99.20;;;;;;1735482;82;20327;-89
2021/08/12 12:54:59;;;;;;;;;;;;;;;;;;;;;
2021/08/12 12:57:39;;;;;;;;;;;29.40;99.40;;;;;;1737190;80;20261;-90
2021/08/12 13:00:11;;;;;;;;;;;29.40;99.90;;;;;;1737332;81;20233;-89
2021/08/12 13:02:41;;;;;;;;;;;29.40;99.90;;;;;;1735949;81;20136;-88
2021/08/12 13:05:18;;;;;;;;;;;29.40;99.90;;;;;;1737054;81;20298;-88
2021/08/12 13:07:56;;;;;;;;;;;29.40;99.90;;;;;;1749259;81;20215;-88
2021/08/12 13:10:26;;;;;;;;;;;29.30;99.60;;;;;;1747582;81;20216;-88
2021/08/12 13:12:57;;;;;;;;;;;29.30;97.80;;;;;;1781426;79;20670;-88
2021/08/12 13:15:30;;;;;;;;;;;29.30;97.50;;;;;;1775670;79;20591;-88
2021/08/12 13:18:01;;;;;;;;;;;29.30;97.10;;;;;;1767986;80;20214;-87
2021/08/12 13:20:35;;;;;;;;;;;29.20;96.70;;;;;;1771345;80;20169;-88
2021/08/12 13:23:13;;;;;;;;;;;29.20;96.00;;;;;;1766833;80;20211;-88
2021/08/12 13:27:06;;;;;;;;;;;29.20;95.60;;;;;;1763496;80;20201;-86
2021/08/12 13:28:53;;;;;;;;;;;29.20;96.10;;;;;;1686726;82;20220;-88
2021/08/12 13:31:37;;;;;;;;;;;29.20;96.00;;;;;;1734545;82;20460;-89
2021/08/12 13:34:10;;;;;;;;;;;29.20;95.70;;;;;;1737640;81;20178;-89
2021/08/12 13:36:40;;;;;;;;;;;29.20;95.80;;;;;;1741055;81;20246;-90
2021/08/12 13:39:11;;;;;;;;;;;29.20;95.90;;;;;;1739731;82;20514;-88
2021/08/12 13:41:42;;;;;;;;;;;29.10;95.70;;;;;;1730843;81;20223;-88
2021/08/12 13:44:14;;;;;;;;;;;29.10;95.70;;;;;;1767313;80;20597;-88
2021/08/12 13:46:46;;;;;;;;;;;29.10;95.70;;;;;;1726548;82;20195;-89
2021/08/12 13:49:15;;;;;;;;;;;29.10;95.70;;;;;;1732348;81;20187;-88
2021/08/12 13:51:45;;;;;;;;;;;29.10;95.80;;;;;;1721017;82;20143;-89
2021/08/12 13:54:27;;;;;;;;;;;29.10;95.90;;;;;;1739036;81;20530;-87
2021/08/12 13:56:57;;;;;;;;;;;29.10;95.90;;;;;;1731993;81;20209;-88
2021/08/12 13:59:29;;;;;;;;;;;29.10;95.90;;;;;;1747201;81;20271;-88
2021/08/12 14:02:03;;;;;;;;;;;29.10;95.90;;;;;;1737902;81;20265;-89
2021/08/12 14:04:39;;;;;;;;;;;29.10;95.80;;;;;;1733217;81;20469;-90
2021/08/12 14:07:10;;;;;;;;;;;29.10;95.70;;;;;;1732000;81;20210;-89
2021/08/12 14:09:41;;;;;;;;;;;29.10;95.50;;;;;;1736509;81;20171;-88
2021/08/12 14:12:22;;;;;;;;;;;29.10;95.50;;;;;;1736661;81;20478;-88
2021/08/12 14:14:53;;;;;;;;;;;29.10;95.70;;;;;;1736581;81;20177;-88
2021/08/12 14:17:22;;;;;;;;;;;29.10;95.70;;;;;;1754098;81;20138;-87
2021/08/12 14:19:52;;;;;;;;;;;29.10;95.50;;;;;;1737559;80;20214;-87
2021/08/12 14:22:22;;;;;;;;;;;29.20;95.70;;;;;;1765708;80;20133;-87
2021/08/12 14:24:52;;;;;;;;;;;29.20;95.80;;;;;;1770252;80;20272;-87
2021/08/12 14:27:22;;;;;;;;;;;29.20;95.50;;;;;;1768734;80;20141;-88
2021/08/12 14:29:54;;;;;;;;;;;29.20;95.80;;;;;;1768567;79;20498;-90
2021/08/12 14:32:26;;;;;;;;;;;29.20;95.40;;;;;;1764719;78;20208;-89
2021/08/12 14:34:56;;;;;;;;;;;29.20;95.50;;;;;;1771408;80;20188;-88
2021/08/12 14:37:26;;;;;;;;;;;29.20;95.30;;;;;;1729509;81;20245;-89
2021/08/12 14:39:56;;;;;;;;;;;29.20;94.80;;;;;;1703096;83;20200;-87
2021/08/12 14:42:27;;;;;;;;;;;29.10;94.90;;;;;;1738582;81;20246;-87
2021/08/12 14:45:00;;;;;;;;;;;29.10;94.60;;;;;;1707222;82;20228;-89
2021/08/12 14:47:30;;;;;;;;;;;29.10;94.50;;;;;;1708783;82;20425;-88
2021/08/12 14:50:02;;;;;;;;;;;29.10;94.70;;;;;;1721773;82;20274;-89
2021/08/12 14:52:32;;;;;;;;;;;29.10;94.80;;;;;;1724554;82;20178;-88
2021/08/12 14:55:08;;;;;;;;;;;29.00;94.70;;;;;;1735569;81;20398;-87
2021/08/12 14:57:40;;;;;;;;;;;29.10;94.70;;;;;;1750615;80;20169;-87
2021/08/12 15:00:28;;;;;;;;;;;29.00;94.60;;;;;;1703503;83;20209;-90
2021/08/12 15:02:58;;;;;;;;;;;29.00;94.40;;;;;;1764180;80;20192;-87
2021/08/12 15:05:28;;;;;;;;;;;28.90;94.20;;;;;;1762230;81;20176;-89
2021/08/12 15:08:05;;;;;;;;;;;28.90;94.20;;;;;;1766227;80;20605;-90
2021/08/12 15:10:29;;;;;;;;;;;28.90;94.30;;;;;;1732157;81;20279;-89
2021/08/12 15:13:02;;;;;;;;;;;28.90;94.30;;;;;;1736452;81;20535;-88